Time;durP1;ratioP1;P1;durP2;ratioP2;P2;SDS_P1;SDS_P2;PMS_P1;PMS_P2;Temp;Humidity;BMP_temperature;BMP_pressure;BME280_temperature;BME280_humidity;BME280_pressure;Samples;Min_cycle;Max_cycle;Signal;HPM_P1;HPM_P2
2021/12/01 00:01:05;;;;;;;1.95;0.70;;;5.60;99.90;;;;;;5091734;28;20299;-58
2021/12/01 00:03:31;;;;;;;0.80;0.80;;;5.50;99.90;;;;;;5091839;28;20263;-59
2021/12/01 00:05:56;;;;;;;1.65;0.80;;;5.50;99.90;;;;;;5091954;28;20237;-58
2021/12/01 00:08:22;;;;;;;0.82;0.82;;;5.50;99.90;;;;;;5091757;28;20604;-59
2021/12/01 00:10:48;;;;;;;0.73;0.73;;;5.50;99.90;;;;;;5091684;28;20226;-59
2021/12/01 00:13:17;;;;;;;0.75;0.75;;;5.50;99.90;;;;;;5091863;28;20176;-59
2021/12/01 00:15:45;;;;;;;0.63;0.57;;;5.50;99.90;;;;;;5091635;28;21034;-59
2021/12/01 00:18:11;;;;;;;0.73;0.73;;;5.50;99.90;;;;;;5091846;28;20258;-59
2021/12/01 00:20:37;;;;;;;0.60;0.60;;;5.50;99.90;;;;;;5091608;28;20816;-59
2021/12/01 00:23:03;;;;;;;0.82;0.82;;;5.50;99.90;;;;;;5091678;28;20175;-59
2021/12/01 00:25:30;;;;;;;0.60;0.60;;;5.40;99.90;;;;;;5091657;28;20529;-59
2021/12/01 00:27:56;;;;;;;0.80;0.60;;;5.40;99.90;;;;;;5091847;28;20542;-59
2021/12/01 00:30:23;;;;;;;0.50;0.50;;;5.40;99.90;;;;;;5091545;28;20176;-59
2021/12/01 00:32:49;;;;;;;0.65;0.50;;;5.40;99.90;;;;;;5091580;28;20177;-59
2021/12/01 00:35:15;;;;;;;0.55;0.55;;;5.40;99.90;;;;;;5091659;28;20187;-59
2021/12/01 00:37:42;;;;;;;1.15;1.00;;;5.50;99.90;;;;;;5091294;28;20263;-59
2021/12/01 00:40:10;;;;;;;5.80;2.75;;;5.50;99.90;;;;;;5091511;28;20203;-59
2021/12/01 00:42:36;;;;;;;2.75;1.42;;;5.50;99.90;;;;;;5091457;28;20164;-59
2021/12/01 00:45:08;;;;;;;2.33;1.50;;;5.50;99.90;;;;;;5091499;28;20605;-58
2021/12/01 00:47:44;;;;;;;0.73;0.60;;;5.50;99.90;;;;;;5091430;28;20195;-59
2021/12/01 00:50:12;;;;;;;3.15;1.70;;;5.50;99.90;;;;;;5095273;28;20176;-59
2021/12/01 00:52:38;;;;;;;13.68;6.25;;;5.50;99.90;;;;;;5095093;28;20172;-59
2021/12/01 00:55:06;;;;;;;1.67;1.17;;;5.50;99.90;;;;;;5094975;28;20247;-59
2021/12/01 00:57:31;;;;;;;2.13;1.00;;;5.60;99.90;;;;;;5095134;28;20172;-59
2021/12/01 00:59:57;;;;;;;0.40;0.40;;;5.60;99.90;;;;;;5095051;28;20253;-58
2021/12/01 01:02:22;;;;;;;1.48;0.77;;;5.60;99.90;;;;;;5094838;28;20638;-58
2021/12/01 01:04:48;;;;;;;0.30;0.30;;;5.60;99.90;;;;;;5095063;28;20210;-58
2021/12/01 01:07:13;;;;;;;0.95;0.90;;;5.60;99.90;;;;;;5094608;28;20172;-59
2021/12/01 01:09:42;;;;;;;1.40;0.98;;;5.60;99.90;;;;;;5094990;28;20640;-58
2021/12/01 01:17:36;;;;;;;0.50;0.50;;;5.60;99.90;;;;;;5095028;28;20260;-58
2021/12/01 01:20:04;;;;;;;2.13;0.93;;;5.60;99.90;;;;;;5094598;28;20291;-59
2021/12/01 01:22:30;;;;;;;1.20;0.40;;;5.60;99.90;;;;;;5094609;28;20188;-59
2021/12/01 01:24:55;;;;;;;1.40;0.50;;;5.60;99.90;;;;;;5094753;28;20259;-58
2021/12/01 01:27:21;;;;;;;1.58;0.60;;;5.60;99.90;;;;;;5094549;28;20176;-59
2021/12/01 01:29:46;;;;;;;1.55;0.60;;;5.60;99.90;;;;;;5094505;28;20181;-58
2021/12/01 01:32:12;;;;;;;0.75;0.75;;;5.60;99.90;;;;;;5094586;28;20172;-58
2021/12/01 01:34:38;;;;;;;0.30;0.30;;;5.60;99.90;;;;;;5094413;28;20191;-59
2021/12/01 01:37:03;;;;;;;0.80;0.60;;;5.70;99.90;;;;;;5094353;28;20255;-58
2021/12/01 01:39:29;;;;;;;0.38;0.38;;;5.70;99.90;;;;;;5094376;28;20246;-59
2021/12/01 01:41:54;;;;;;;1.70;0.63;;;5.80;99.90;;;;;;5094473;28;20176;-59
2021/12/01 01:44:20;;;;;;;1.55;0.47;;;5.80;99.90;;;;;;5094414;28;20229;-59
2021/12/01 01:46:46;;;;;;;1.08;0.70;;;5.80;99.90;;;;;;5094266;28;20191;-59
2021/12/01 01:49:19;;;;;;;1.00;0.57;;;5.80;99.90;;;;;;5094365;28;20176;-59
2021/12/01 01:51:47;;;;;;;1.50;0.60;;;5.80;99.90;;;;;;5094176;28;20228;-59
2021/12/01 01:54:13;;;;;;;0.50;0.50;;;5.80;99.90;;;;;;5094119;28;20574;-59
2021/12/01 01:56:40;;;;;;;0.52;0.40;;;5.80;99.90;;;;;;5094018;28;20184;-59
2021/12/01 01:59:06;;;;;;;1.10;0.40;;;5.80;99.90;;;;;;5093751;28;20692;-59
2021/12/01 02:01:44;;;;;;;1.15;0.60;;;5.80;99.90;;;;;;5093939;28;20184;-58
2021/12/01 02:04:15;;;;;;;0.60;0.47;;;5.90;99.90;;;;;;5093997;28;20180;-59
2021/12/01 02:06:41;;;;;;;0.90;0.40;;;5.90;99.90;;;;;;5093784;28;20184;-59
2021/12/01 02:09:08;;;;;;;0.57;0.47;;;5.90;99.90;;;;;;5093918;28;20581;-58
2021/12/01 02:11:34;;;;;;;0.65;0.40;;;6.00;99.90;;;;;;5093703;28;20172;-59
2021/12/01 02:14:00;;;;;;;0.45;0.45;;;6.00;99.90;;;;;;5093821;28;20180;-59
2021/12/01 02:16:26;;;;;;;0.52;0.52;;;6.00;99.90;;;;;;5091899;28;20511;-59
2021/12/01 02:18:52;;;;;;;1.33;0.70;;;6.00;99.90;;;;;;5093494;28;20176;-59
2021/12/01 02:21:27;;;;;;;0.40;0.40;;;6.00;99.90;;;;;;5093494;28;20243;-58
2021/12/01 02:23:58;;;;;;;2.60;0.60;;;6.00;99.90;;;;;;5093647;28;20171;-59
2021/12/01 02:26:25;;;;;;;0.60;0.57;;;6.00;99.90;;;;;;5093356;28;20179;-59
2021/12/01 02:28:55;;;;;;;0.70;0.70;;;6.00;99.90;;;;;;5093478;28;20176;-59
2021/12/01 02:31:25;;;;;;;0.63;0.43;;;6.10;99.90;;;;;;5093345;28;20294;-59
2021/12/01 02:33:52;;;;;;;1.88;0.75;;;6.10;99.90;;;;;;5093534;28;20288;-59
2021/12/01 02:36:18;;;;;;;0.70;0.43;;;6.10;99.90;;;;;;5093371;28;20172;-59
2021/12/01 02:38:46;;;;;;;0.60;0.60;;;6.10;99.90;;;;;;5093064;28;20542;-59
2021/12/01 02:41:13;;;;;;;0.50;0.50;;;6.10;99.90;;;;;;5093216;28;20216;-59
2021/12/01 02:43:39;;;;;;;0.98;0.75;;;6.10;99.90;;;;;;5093019;28;20168;-59
2021/12/01 02:46:05;;;;;;;0.70;0.70;;;6.10;99.90;;;;;;5093030;28;20169;-58
2021/12/01 02:48:34;;;;;;;0.73;0.68;;;6.10;99.90;;;;;;5093050;28;20183;-59
2021/12/01 02:51:04;;;;;;;0.80;0.80;;;6.10;99.90;;;;;;5093059;28;20211;-59
2021/12/01 02:53:29;;;;;;;0.82;0.80;;;6.20;99.90;;;;;;5105337;28;20193;-59
2021/12/01 02:55:58;;;;;;;0.98;0.95;;;6.20;99.90;;;;;;5092748;28;20223;-58
2021/12/01 02:58:27;;;;;;;2.05;0.98;;;6.20;99.90;;;;;;5092766;28;20177;-59
2021/12/01 03:00:57;;;;;;;1.13;1.02;;;6.20;99.90;;;;;;5092841;28;20216;-59
2021/12/01 03:03:23;;;;;;;0.90;0.90;;;6.20;99.90;;;;;;5092757;28;20174;-59
2021/12/01 03:05:50;;;;;;;1.38;1.20;;;6.20;99.90;;;;;;5092681;28;20199;-59
2021/12/01 03:08:17;;;;;;;2.85;0.90;;;6.20;99.90;;;;;;5092789;28;20180;-59
2021/12/01 03:10:46;;;;;;;0.93;0.80;;;6.20;99.90;;;;;;5091938;28;20263;-59
2021/12/01 03:13:12;;;;;;;3.10;2.15;;;6.20;99.90;;;;;;5092572;28;20169;-59
2021/12/01 03:15:38;;;;;;;1.48;1.42;;;6.30;99.90;;;;;;5092565;28;20258;-59
2021/12/01 03:18:03;;;;;;;1.23;1.00;;;6.30;99.90;;;;;;5092303;28;20597;-58
2021/12/01 03:20:29;;;;;;;1.63;1.00;;;6.30;99.90;;;;;;5092483;28;20257;-59
2021/12/01 03:22:54;;;;;;;0.88;0.88;;;6.40;99.90;;;;;;5091208;28;20197;-59
2021/12/01 03:25:22;;;;;;;1.67;0.85;;;6.40;99.90;;;;;;5092530;28;20217;-59
2021/12/01 03:27:48;;;;;;;2.15;0.90;;;6.40;99.90;;;;;;5092366;28;20225;-59
2021/12/01 03:30:13;;;;;;;2.45;1.20;;;6.40;99.90;;;;;;5092473;28;20176;-59
2021/12/01 03:32:40;;;;;;;0.85;0.85;;;6.40;99.90;;;;;;5092311;28;20363;-59
2021/12/01 03:35:12;;;;;;;1.00;0.90;;;6.40;99.90;;;;;;5092389;28;20696;-59
2021/12/01 03:37:39;;;;;;;2.42;1.00;;;6.40;99.90;;;;;;5092041;28;20184;-58
2021/12/01 03:40:06;;;;;;;1.00;0.90;;;6.40;99.90;;;;;;5092163;28;20640;-58
2021/12/01 03:42:31;;;;;;;2.30;0.95;;;6.40;99.90;;;;;;5092043;28;20662;-59
2021/12/01 03:44:57;;;;;;;0.80;0.80;;;6.40;99.90;;;;;;5092303;28;20184;-59
2021/12/01 03:47:24;;;;;;;0.95;0.90;;;6.40;99.90;;;;;;5091966;28;20558;-59
2021/12/01 03:49:50;;;;;;;1.25;0.68;;;6.50;99.90;;;;;;5092154;28;20172;-59
2021/12/01 03:52:17;;;;;;;0.93;0.80;;;6.50;99.90;;;;;;5092177;28;20195;-58
2021/12/01 03:54:52;;;;;;;0.70;0.70;;;6.50;99.90;;;;;;5091643;28;20215;-59
2021/12/01 03:57:19;;;;;;;0.75;0.75;;;6.50;99.90;;;;;;5092184;28;20176;-59
2021/12/01 03:59:45;;;;;;;1.20;0.85;;;6.50;99.90;;;;;;5091650;28;20203;-58
2021/12/01 04:02:11;;;;;;;0.55;0.55;;;6.50;99.90;;;;;;5092028;28;20188;-59
2021/12/01 04:04:37;;;;;;;1.38;0.80;;;6.60;99.90;;;;;;5091892;28;20196;-58
2021/12/01 04:07:04;;;;;;;1.00;0.70;;;6.50;99.90;;;;;;5091783;28;20303;-59
2021/12/01 04:09:31;;;;;;;1.85;0.70;;;6.50;99.90;;;;;;5091980;28;20175;-59
2021/12/01 04:11:56;;;;;;;0.40;0.40;;;6.60;99.90;;;;;;5091898;28;20168;-58
2021/12/01 04:14:22;;;;;;;0.73;0.65;;;6.60;99.90;;;;;;5091763;28;20179;-59
2021/12/01 04:16:48;;;;;;;2.05;0.60;;;6.60;99.90;;;;;;5091924;28;20171;-59
2021/12/01 04:19:14;;;;;;;0.68;0.68;;;6.60;99.90;;;;;;5091638;28;20241;-59
2021/12/01 04:21:39;;;;;;;1.10;0.73;;;6.60;99.90;;;;;;5091463;28;20646;-59
2021/12/01 04:24:06;;;;;;;0.68;0.68;;;6.70;99.90;;;;;;5095609;28;20255;-59
2021/12/01 04:26:33;;;;;;;0.93;0.85;;;6.70;99.90;;;;;;5095752;28;20641;-59
2021/12/01 04:28:59;;;;;;;0.43;0.43;;;6.70;99.90;;;;;;5095768;28;20180;-59
2021/12/01 04:31:26;;;;;;;2.15;0.70;;;6.70;99.90;;;;;;5095505;28;20180;-59
2021/12/01 04:33:51;;;;;;;0.40;0.40;;;6.70;99.90;;;;;;5095618;28;20187;-59
2021/12/01 04:36:17;;;;;;;1.13;0.50;;;6.70;99.90;;;;;;5095498;28;20172;-58
2021/12/01 04:38:44;;;;;;;0.65;0.63;;;6.70;99.90;;;;;;5095306;28;20184;-59
2021/12/01 04:41:13;;;;;;;0.55;0.52;;;6.70;99.90;;;;;;5095235;28;20231;-59
2021/12/01 04:43:39;;;;;;;1.60;0.45;;;6.70;99.90;;;;;;5095141;28;20183;-59
2021/12/01 04:46:05;;;;;;;0.77;0.70;;;6.80;99.90;;;;;;5094913;28;20517;-58
2021/12/01 04:48:32;;;;;;;0.45;0.45;;;6.80;99.90;;;;;;5095155;28;20176;-58
2021/12/01 04:50:58;;;;;;;2.90;0.68;;;6.70;99.90;;;;;;5095508;28;20183;-58
2021/12/01 04:53:25;;;;;;;0.47;0.32;;;6.70;99.90;;;;;;5095159;28;20184;-58
2021/12/01 04:55:52;;;;;;;1.15;0.88;;;6.70;99.90;;;;;;5094962;28;20306;-58
2021/12/01 04:58:19;;;;;;;0.80;0.60;;;6.70;99.90;;;;;;5095301;28;20275;-59
2021/12/01 05:00:44;;;;;;;1.73;0.65;;;6.70;99.90;;;;;;5093606;28;20539;-59
2021/12/01 05:03:10;;;;;;;1.55;0.40;;;6.70;99.90;;;;;;5094920;28;20183;-59
2021/12/01 05:05:36;;;;;;;0.45;0.32;;;6.80;99.90;;;;;;5094998;28;20180;-58
2021/12/01 05:08:02;;;;;;;2.45;0.60;;;6.80;99.90;;;;;;5094947;28;20175;-59
2021/12/01 05:10:27;;;;;;;0.60;0.60;;;6.80;99.90;;;;;;5094831;28;20172;-60
2021/12/01 05:12:53;;;;;;;0.70;0.70;;;6.80;99.90;;;;;;5094914;28;20176;-62
2021/12/01 05:15:18;;;;;;;0.75;0.60;;;6.90;99.90;;;;;;5095053;28;20176;-59
2021/12/01 05:17:44;;;;;;;0.98;0.68;;;6.90;99.90;;;;;;5094422;28;20183;-59
2021/12/01 05:20:11;;;;;;;1.77;1.02;;;6.90;99.90;;;;;;5094810;28;20216;-60
2021/12/01 05:22:38;;;;;;;4.13;0.57;;;6.90;99.90;;;;;;5094555;28;20601;-59
2021/12/01 05:25:05;;;;;;;0.30;0.30;;;6.90;99.90;;;;;;5101871;28;20179;-59
2021/12/01 05:27:31;;;;;;;1.40;0.70;;;6.90;99.90;;;;;;5099282;28;20681;-59
2021/12/01 05:29:56;;;;;;;0.55;0.55;;;6.90;99.90;;;;;;5094707;28;20670;-59
2021/12/01 05:32:22;;;;;;;1.23;0.80;;;6.90;99.90;;;;;;5094421;28;20267;-60
2021/12/01 05:34:47;;;;;;;1.02;0.93;;;7.00;99.90;;;;;;5092707;28;20664;-59
2021/12/01 05:37:13;;;;;;;0.70;0.60;;;7.00;99.90;;;;;;5094022;28;20203;-59
2021/12/01 05:39:41;;;;;;;1.77;0.52;;;7.10;99.90;;;;;;5094321;28;20208;-59
2021/12/01 05:42:07;;;;;;;0.70;0.50;;;7.10;99.90;;;;;;5094399;28;20178;-59
2021/12/01 05:44:34;;;;;;;2.88;0.63;;;7.10;99.90;;;;;;5094369;28;20553;-58
2021/12/01 05:47:20;;;;;;;0.90;0.60;;;7.20;99.90;;;;;;5094476;28;20184;-59
2021/12/01 05:49:46;;;;;;;0.88;0.47;;;7.20;99.90;;;;;;5094247;28;20180;-59
2021/12/01 05:52:14;;;;;;;1.73;0.70;;;7.20;99.90;;;;;;5094272;28;20237;-58
2021/12/01 05:54:39;;;;;;;0.50;0.50;;;7.20;99.90;;;;;;5093720;28;20226;-59
2021/12/01 05:57:06;;;;;;;1.15;0.60;;;7.20;99.90;;;;;;5094073;28;20179;-59
2021/12/01 05:59:31;;;;;;;1.45;0.50;;;7.20;99.90;;;;;;5093943;28;20671;-59
2021/12/01 06:01:57;;;;;;;0.20;0.20;;;7.20;99.90;;;;;;5092832;28;20180;-59
2021/12/01 06:04:25;;;;;;;2.88;0.60;;;7.20;99.90;;;;;;5093734;28;20172;-59
2021/12/01 06:06:51;;;;;;;1.25;0.68;;;7.20;99.90;;;;;;5093803;28;20678;-59
2021/12/01 06:09:17;;;;;;;5.88;2.65;;;7.30;99.90;;;;;;5093803;28;20230;-59
2021/12/01 06:11:46;;;;;;;1.23;0.40;;;7.30;99.90;;;;;;5093722;28;20176;-58
2021/12/01 06:14:13;;;;;;;1.63;0.70;;;7.30;99.90;;;;;;5093839;28;20280;-59
2021/12/01 06:16:39;;;;;;;2.20;1.20;;;7.30;99.90;;;;;;5093775;28;20169;-59
2021/12/01 06:19:05;;;;;;;6.28;2.97;;;7.30;99.90;;;;;;5093638;28;20191;-59
2021/12/01 06:21:30;;;;;;;0.40;0.38;;;7.30;99.90;;;;;;5093519;28;20286;-58
2021/12/01 06:23:56;;;;;;;1.52;1.10;;;7.30;99.90;;;;;;5093627;28;20168;-59
2021/12/01 06:26:21;;;;;;;3.22;1.77;;;7.40;99.90;;;;;;5093540;28;20191;-59
2021/12/01 06:28:47;;;;;;;0.73;0.52;;;7.50;99.90;;;;;;5093481;28;20501;-59
2021/12/01 06:31:12;;;;;;;2.13;1.17;;;7.40;99.90;;;;;;5093407;28;20284;-59
2021/12/01 06:33:38;;;;;;;1.00;0.82;;;7.50;99.90;;;;;;5093371;28;20172;-58
2021/12/01 06:36:04;;;;;;;0.55;0.50;;;7.40;99.90;;;;;;5093358;28;20176;-58
2021/12/01 06:38:29;;;;;;;1.58;1.15;;;7.40;99.90;;;;;;5093064;28;20184;-59
2021/12/01 06:40:55;;;;;;;2.40;1.33;;;7.40;99.90;;;;;;5093137;28;20216;-59
2021/12/01 06:43:21;;;;;;;3.75;1.83;;;7.40;99.90;;;;;;5093272;28;20176;-58
2021/12/01 06:45:46;;;;;;;0.98;0.88;;;7.40;99.90;;;;;;5091985;28;20180;-59
2021/12/01 06:48:12;;;;;;;0.85;0.70;;;7.40;99.90;;;;;;5093067;28;20168;-59
2021/12/01 06:50:38;;;;;;;0.40;0.40;;;7.50;99.90;;;;;;5093030;28;20184;-59
2021/12/01 06:53:04;;;;;;;0.40;0.40;;;7.50;99.90;;;;;;5093051;28;20650;-59
2021/12/01 06:55:30;;;;;;;0.50;0.40;;;7.50;99.90;;;;;;5092736;28;20216;-59
2021/12/01 06:57:55;;;;;;;0.52;0.52;;;7.60;99.90;;;;;;5093067;28;20589;-59
2021/12/01 07:00:21;;;;;;;1.05;0.85;;;7.60;99.90;;;;;;5092855;28;20216;-60
2021/12/01 07:02:47;;;;;;;0.80;0.80;;;7.60;99.90;;;;;;5092891;28;20173;-59
2021/12/01 07:05:13;;;;;;;0.60;0.55;;;7.60;99.90;;;;;;5092915;28;20180;-59
2021/12/01 07:07:39;;;;;;;0.52;0.40;;;7.60;99.90;;;;;;5092814;28;20199;-59
2021/12/01 07:10:07;;;;;;;0.30;0.30;;;7.60;99.90;;;;;;5092642;28;20168;-59
2021/12/01 07:12:32;;;;;;;1.52;0.40;;;7.60;99.90;;;;;;5091304;28;20180;-59
2021/12/01 07:14:58;;;;;;;0.30;0.30;;;7.60;99.90;;;;;;5092724;28;20176;-59
2021/12/01 07:17:24;;;;;;;1.05;0.45;;;7.60;99.90;;;;;;5092578;28;20203;-59
2021/12/01 07:19:49;;;;;;;1.73;0.88;;;7.70;99.90;;;;;;5092505;28;20215;-58
2021/12/01 07:22:16;;;;;;;4.70;1.55;;;7.70;99.90;;;;;;5092536;28;20183;-59
2021/12/01 07:24:42;;;;;;;7.78;3.22;;;7.70;99.90;;;;;;5092425;28;20176;-59
2021/12/01 07:27:07;;;;;;;0.30;0.30;;;7.70;99.90;;;;;;5092496;28;20217;-59
2021/12/01 07:29:35;;;;;;;5.55;1.60;;;7.70;99.90;;;;;;5092442;28;20179;-59
2021/12/01 07:32:01;;;;;;;0.88;0.47;;;7.70;99.90;;;;;;5092425;28;20529;-59
2021/12/01 07:34:26;;;;;;;1.88;1.00;;;7.70;99.90;;;;;;5090867;28;20180;-59
2021/12/01 07:36:52;;;;;;;3.58;2.38;;;7.70;99.90;;;;;;5092374;28;20504;-59
2021/12/01 07:39:19;;;;;;;0.50;0.50;;;7.70;99.90;;;;;;5092101;28;20655;-56
2021/12/01 07:41:45;;;;;;;0.43;0.30;;;7.70;99.90;;;;;;5091966;28;20200;-57
2021/12/01 07:44:11;;;;;;;0.40;0.40;;;7.70;99.90;;;;;;5092182;28;20179;-57
2021/12/01 07:46:36;;;;;;;1.63;0.40;;;7.70;99.90;;;;;;5092074;28;20176;-57
2021/12/01 07:49:02;;;;;;;0.30;0.30;;;7.80;99.90;;;;;;5091901;28;20225;-57
2021/12/01 07:51:27;;;;;;;0.50;0.40;;;7.80;99.90;;;;;;5091941;28;20177;-57
2021/12/01 07:53:55;;;;;;;0.80;0.30;;;7.80;99.90;;;;;;5091896;28;20271;-58
2021/12/01 07:56:20;;;;;;;0.30;0.30;;;7.80;99.90;;;;;;5092039;28;20180;-57
2021/12/01 07:58:46;;;;;;;0.40;0.38;;;7.80;99.90;;;;;;5091405;28;20199;-57
2021/12/01 08:01:11;;;;;;;0.55;0.43;;;7.80;99.90;;;;;;5091704;28;20561;-57
2021/12/01 08:03:37;;;;;;;0.80;0.75;;;7.80;99.90;;;;;;5090448;28;20188;-58
2021/12/01 08:06:02;;;;;;;0.98;0.38;;;7.80;99.90;;;;;;5091674;28;20183;-57
2021/12/01 08:08:29;;;;;;;0.50;0.50;;;7.90;99.90;;;;;;5091832;28;20635;-58
2021/12/01 08:10:55;;;;;;;0.70;0.60;;;7.90;99.90;;;;;;5091523;28;20229;-57
2021/12/01 08:13:21;;;;;;;0.85;0.60;;;7.90;99.90;;;;;;5091721;28;20662;-57
2021/12/01 08:15:47;;;;;;;1.15;0.70;;;8.00;99.90;;;;;;5091512;28;20172;-57
2021/12/01 08:18:14;;;;;;;0.55;0.40;;;8.00;99.90;;;;;;5091736;28;20615;-57
2021/12/01 08:20:39;;;;;;;0.90;0.50;;;8.00;99.90;;;;;;5091470;28;20215;-57
2021/12/01 08:23:05;;;;;;;1.48;0.60;;;8.00;99.90;;;;;;5091583;28;20218;-57
2021/12/01 08:25:30;;;;;;;0.45;0.45;;;8.00;99.90;;;;;;5091591;28;20689;-58
2021/12/01 08:27:56;;;;;;;0.40;0.40;;;8.10;99.90;;;;;;5090424;28;20180;-57
2021/12/01 08:30:22;;;;;;;0.68;0.40;;;8.10;99.90;;;;;;5091667;28;20180;-58
2021/12/01 08:32:47;;;;;;;11.82;9.23;;;8.10;99.90;;;;;;5091616;28;20228;-58
2021/12/01 08:35:15;;;;;;;1.10;1.00;;;8.20;99.90;;;;;;5091655;28;20523;-57
2021/12/01 08:37:42;;;;;;;0.60;0.60;;;8.20;99.90;;;;;;5091568;28;20184;-57
2021/12/01 08:40:08;;;;;;;0.40;0.40;;;8.20;99.90;;;;;;5091595;28;20218;-57
2021/12/01 08:42:34;;;;;;;1.15;0.55;;;8.30;99.90;;;;;;5091481;28;20245;-58
2021/12/01 08:45:00;;;;;;;0.50;0.50;;;8.30;99.90;;;;;;5091527;28;20176;-58
2021/12/01 08:47:26;;;;;;;0.50;0.50;;;8.40;99.90;;;;;;5091391;28;20621;-57
2021/12/01 08:49:52;;;;;;;3.63;0.43;;;8.40;99.90;;;;;;5091691;28;20168;-57
2021/12/01 08:52:18;;;;;;;0.57;0.57;;;8.50;99.90;;;;;;5091599;28;20177;-57
2021/12/01 08:54:44;;;;;;;2.95;0.90;;;8.50;99.90;;;;;;5091126;28;20224;-57
2021/12/01 08:57:09;;;;;;;1.05;0.80;;;8.50;99.90;;;;;;5091585;28;20245;-57
2021/12/01 08:59:36;;;;;;;2.05;0.95;;;8.60;99.90;;;;;;5091200;28;20203;-57
2021/12/01 09:02:02;;;;;;;0.60;0.60;;;8.60;99.90;;;;;;5091475;28;20587;-57
2021/12/01 09:04:28;;;;;;;1.40;0.95;;;8.60;99.90;;;;;;5091330;28;20533;-58
2021/12/01 09:06:54;;;;;;;3.90;1.20;;;8.60;99.90;;;;;;5091334;28;20184;-57
2021/12/01 09:09:20;;;;;;;3.25;0.95;;;8.60;99.90;;;;;;5092256;28;20279;-57
2021/12/01 09:11:47;;;;;;;1.83;0.85;;;8.70;99.90;;;;;;5094801;28;20278;-57
2021/12/01 09:14:13;;;;;;;1.45;0.60;;;8.70;99.90;;;;;;5095047;28;20187;-58
2021/12/01 09:16:40;;;;;;;0.55;0.38;;;8.70;99.90;;;;;;5094852;28;20631;-58
2021/12/01 09:19:06;;;;;;;2.65;0.85;;;8.70;99.90;;;;;;5094682;28;20175;-57
2021/12/01 09:21:32;;;;;;;5.43;1.33;;;8.80;99.90;;;;;;5094745;28;20208;-57
2021/12/01 09:23:57;;;;;;;1.98;1.02;;;8.80;99.90;;;;;;5094902;28;20253;-57
2021/12/01 09:26:23;;;;;;;3.00;1.27;;;8.80;99.90;;;;;;5094680;28;20225;-58
2021/12/01 09:28:48;;;;;;;0.98;0.40;;;8.80;99.90;;;;;;5094689;28;20180;-58
2021/12/01 09:31:14;;;;;;;0.55;0.43;;;8.80;99.90;;;;;;5094732;28;20675;-58
2021/12/01 09:33:39;;;;;;;3.13;1.23;;;8.90;99.90;;;;;;5094548;28;20180;-57
2021/12/01 09:36:05;;;;;;;2.40;0.80;;;8.90;99.90;;;;;;5094487;28;20692;-58
2021/12/01 09:38:31;;;;;;;1.40;0.30;;;9.00;99.90;;;;;;5094358;28;20179;-57
2021/12/01 09:40:59;;;;;;;0.38;0.25;;;9.00;99.90;;;;;;5094510;28;20226;-57
2021/12/01 09:43:27;;;;;;;3.30;0.43;;;9.00;99.90;;;;;;5094302;28;20172;-57
2021/12/01 09:45:58;;;;;;;1.40;0.60;;;9.10;99.90;;;;;;5094463;28;20191;-57
2021/12/01 09:48:24;;;;;;;3.17;1.30;;;9.20;99.90;;;;;;5094247;28;20171;-57
2021/12/01 09:50:50;;;;;;;2.45;0.80;;;9.20;99.90;;;;;;5094401;28;20223;-58
2021/12/01 09:53:16;;;;;;;0.40;0.40;;;9.20;99.90;;;;;;5094334;28;20635;-58
2021/12/01 09:55:43;;;;;;;1.10;0.50;;;9.20;99.90;;;;;;5093940;28;20435;-57
2021/12/01 09:58:18;;;;;;;0.60;0.50;;;9.20;99.90;;;;;;5094171;28;20172;-58
2021/12/01 10:00:47;;;;;;;2.65;0.80;;;9.20;99.90;;;;;;5093793;28;20230;-58
2021/12/01 10:03:13;;;;;;;2.30;0.63;;;9.20;99.90;;;;;;5094086;28;20213;-57
2021/12/01 10:05:50;;;;;;;11.23;3.75;;;9.30;99.90;;;;;;5093920;28;20168;-58
2021/12/01 10:08:21;;;;;;;10.50;4.90;;;9.30;99.90;;;;;;5094007;28;20180;-58
2021/12/01 10:10:48;;;;;;;2.80;1.58;;;9.30;99.90;;;;;;5093799;28;20215;-58
2021/12/01 10:13:15;;;;;;;1.88;0.95;;;9.30;99.90;;;;;;5093909;28;20176;-58
2021/12/01 10:15:41;;;;;;;3.85;1.05;;;9.30;99.90;;;;;;5093774;28;20176;-57
2021/12/01 10:18:15;;;;;;;1.00;0.75;;;9.30;99.90;;;;;;5093694;28;20176;-58
2021/12/01 10:20:43;;;;;;;2.33;1.00;;;9.40;99.90;;;;;;5093284;28;20228;-58
2021/12/01 10:23:16;;;;;;;3.38;1.25;;;9.40;99.90;;;;;;5093740;28;20632;-57
2021/12/01 10:25:42;;;;;;;1.42;0.70;;;9.40;99.90;;;;;;5093656;28;20172;-58
2021/12/01 10:28:13;;;;;;;2.17;1.17;;;9.50;99.90;;;;;;5093650;28;20517;-58
2021/12/01 10:30:46;;;;;;;2.08;0.60;;;9.50;99.90;;;;;;5093412;28;20267;-58
2021/12/01 10:33:16;;;;;;;2.92;1.17;;;9.60;99.90;;;;;;5093454;28;20172;-57
2021/12/01 10:35:43;;;;;;;1.10;0.90;;;9.70;99.90;;;;;;5093325;28;20195;-58
2021/12/01 10:38:10;;;;;;;3.92;1.27;;;9.70;99.90;;;;;;5093233;28;20180;-58
2021/12/01 10:40:37;;;;;;;1.92;0.95;;;9.70;99.90;;;;;;5093174;28;20237;-58
2021/12/01 10:43:06;;;;;;;0.93;0.68;;;9.70;99.90;;;;;;5093144;28;20536;-57
2021/12/01 10:45:40;;;;;;;4.47;1.85;;;9.60;99.90;;;;;;5093112;28;20548;-58
2021/12/01 10:48:09;;;;;;;1.25;0.60;;;9.60;99.90;;;;;;5093191;28;20245;-58
2021/12/01 10:50:43;;;;;;;2.80;1.40;;;9.60;99.90;;;;;;5093184;28;20639;-58
2021/12/01 10:53:12;;;;;;;1.55;1.00;;;9.60;99.90;;;;;;5093221;28;20320;-58
2021/12/01 10:55:47;;;;;;;2.05;1.20;;;9.60;99.90;;;;;;5092817;28;20227;-58
2021/12/01 10:58:15;;;;;;;3.13;1.42;;;9.60;99.90;;;;;;5093068;28;20172;-58
2021/12/01 11:00:49;;;;;;;2.67;1.15;;;9.60;99.90;;;;;;5092742;28;20215;-58
2021/12/01 11:03:17;;;;;;;3.63;1.42;;;9.60;99.90;;;;;;5092957;28;20523;-58
2021/12/01 11:05:44;;;;;;;1.83;0.77;;;9.70;99.90;;;;;;5091152;28;20539;-58
2021/12/01 11:08:15;;;;;;;3.40;1.30;;;9.70;99.90;;;;;;5092800;28;20183;-57
2021/12/01 11:10:43;;;;;;;3.58;1.35;;;9.80;99.90;;;;;;5092643;28;20176;-57
2021/12/01 11:13:09;;;;;;;2.60;1.33;;;9.80;99.90;;;;;;5092646;28;20654;-58
2021/12/01 11:15:38;;;;;;;6.20;2.40;;;9.90;99.90;;;;;;5092504;28;20247;-58
2021/12/01 11:18:05;;;;;;;6.32;1.85;;;9.90;99.90;;;;;;5092502;28;20180;-57
2021/12/01 11:20:37;;;;;;;2.63;1.63;;;9.90;99.90;;;;;;5092415;28;20215;-58
2021/12/01 11:23:22;;;;;;;3.35;1.50;;;9.90;99.90;;;;;;5092463;28;20180;-57
2021/12/01 11:25:58;;;;;;;1.92;0.88;;;9.90;99.90;;;;;;5092501;28;20541;-57
2021/12/01 11:28:26;;;;;;;4.82;1.60;;;9.90;99.90;;;;;;5092417;28;20195;-57
2021/12/01 11:30:58;;;;;;;2.10;1.20;;;9.90;99.90;;;;;;5092427;28;20176;-58
2021/12/01 11:33:25;;;;;;;1.25;0.70;;;9.90;99.90;;;;;;5091756;28;20181;-58
2021/12/01 11:36:06;;;;;;;1.10;0.88;;;9.90;99.90;;;;;;5092265;28;20214;-58
2021/12/01 11:38:33;;;;;;;3.15;1.85;;;9.80;99.90;;;;;;5092115;28;20639;-58
2021/12/01 11:40:59;;;;;;;1.27;1.00;;;9.80;99.90;;;;;;5092352;28;20251;-57
2021/12/01 11:43:27;;;;;;;0.90;0.75;;;9.70;99.90;;;;;;5092088;28;20214;-58
2021/12/01 11:45:54;;;;;;;0.38;0.38;;;9.70;99.90;;;;;;5092252;28;20184;-58
2021/12/01 11:48:34;;;;;;;0.68;0.68;;;9.70;99.90;;;;;;5092196;28;20173;-58
2021/12/01 11:51:20;;;;;;;0.50;0.50;;;9.60;99.90;;;;;;5092181;28;20172;-57
2021/12/01 11:53:51;;;;;;;0.22;0.22;;;9.60;99.90;;;;;;5092014;28;20500;-57
2021/12/01 11:56:33;;;;;;;0.30;0.30;;;9.60;99.90;;;;;;5092059;28;20192;-58
2021/12/01 11:59:05;;;;;;;0.10;0.10;;;9.60;99.90;;;;;;5092078;28;20643;-58
2021/12/01 12:01:35;;;;;;;1.02;0.75;;;9.60;99.90;;;;;;5091808;28;20233;-58
2021/12/01 12:04:01;;;;;;;0.45;0.45;;;9.60;99.90;;;;;;5092146;28;20176;-58
2021/12/01 12:06:28;;;;;;;0.80;0.40;;;9.70;99.90;;;;;;5090493;28;20643;-58
2021/12/01 12:08:54;;;;;;;0.98;0.30;;;9.70;99.90;;;;;;5091914;28;20657;-57
2021/12/01 12:11:41;;;;;;;1.65;0.20;;;9.70;99.90;;;;;;5091892;28;20180;-58
2021/12/01 12:14:10;;;;;;;2.60;0.40;;;9.70;99.90;;;;;;5090594;28;20202;-58
2021/12/01 12:16:37;;;;;;;2.90;0.50;;;9.80;99.90;;;;;;5091784;28;20651;-58
2021/12/01 12:19:04;;;;;;;3.03;0.25;;;9.70;99.90;;;;;;5091706;28;20168;-57
2021/12/01 12:21:51;;;;;;;1.02;0.50;;;9.70;99.90;;;;;;5091713;28;20698;-58
2021/12/01 12:24:22;;;;;;;0.65;0.32;;;9.70;99.90;;;;;;5091891;28;20172;-57
2021/12/01 12:26:53;;;;;;;0.75;0.30;;;9.60;99.90;;;;;;5091691;28;20518;-57
2021/12/01 12:29:22;;;;;;;0.52;0.40;;;9.60;99.90;;;;;;5091900;28;20172;-57
2021/12/01 12:31:50;;;;;;;0.75;0.47;;;9.60;99.90;;;;;;5091585;28;20186;-58
2021/12/01 12:34:21;;;;;;;1.38;0.40;;;9.60;99.90;;;;;;5091680;28;20168;-59
2021/12/01 12:36:49;;;;;;;1.80;0.88;;;9.60;99.90;;;;;;5091450;28;20286;-59
2021/12/01 12:39:21;;;;;;;0.73;0.50;;;9.70;99.90;;;;;;5091666;28;20225;-58
2021/12/01 12:42:01;;;;;;;0.50;0.50;;;9.70;99.90;;;;;;5091367;28;20216;-59
2021/12/01 12:44:32;;;;;;;0.80;0.45;;;9.70;99.90;;;;;;5092581;28;20217;-58
2021/12/01 12:47:16;;;;;;;1.20;0.45;;;9.70;99.90;;;;;;5095460;28;20212;-58
2021/12/01 12:49:44;;;;;;;1.80;1.00;;;9.70;99.90;;;;;;5095430;28;20183;-58
2021/12/01 12:52:27;;;;;;;0.70;0.52;;;9.60;99.90;;;;;;5095507;28;20179;-59
2021/12/01 12:55:09;;;;;;;1.30;0.68;;;9.60;99.90;;;;;;5095215;28;20330;-59
2021/12/01 12:57:58;;;;;;;0.45;0.40;;;9.60;99.90;;;;;;5095372;28;20259;-58
2021/12/01 13:00:45;;;;;;;0.35;0.35;;;9.50;99.90;;;;;;5095094;28;20303;-59
2021/12/01 13:03:19;;;;;;;0.73;0.43;;;9.50;99.90;;;;;;5095391;28;20176;-59
2021/12/01 13:05:46;;;;;;;1.95;0.90;;;9.50;99.90;;;;;;5094879;28;20176;-59